createdAt,value
2017-09-18T00:00:20.112Z,0
2017-09-18T00:01:28.802Z,0
2017-09-18T00:02:37.762Z,0
2017-09-18T00:03:46.861Z,0
2017-09-18T00:04:56.310Z,0
2017-09-18T00:06:05.960Z,0
2017-09-18T00:07:14.940Z,0
2017-09-18T00:08:23.910Z,0
2017-09-18T00:09:32.555Z,0
2017-09-18T00:10:41.212Z,0
2017-09-18T00:11:50.521Z,0
2017-09-18T00:12:59.492Z,0
2017-09-18T00:14:08.158Z,0
2017-09-18T00:15:18.075Z,0
2017-09-18T00:16:27.037Z,0
2017-09-18T00:17:36.316Z,0
2017-09-18T00:18:45.306Z,0
2017-09-18T00:19:53.952Z,0
2017-09-18T00:21:03.241Z,0
2017-09-18T00:22:11.908Z,0
2017-09-18T00:23:21.205Z,0
2017-09-18T00:24:29.875Z,0
2017-09-18T00:25:38.835Z,0
2017-09-18T00:26:48.119Z,0
2017-09-18T00:27:56.756Z,0
2017-09-18T00:29:05.408Z,0
2017-09-18T00:30:14.382Z,0
2017-09-18T00:31:23.356Z,0
2017-09-18T00:32:32.640Z,0
2017-09-18T00:33:41.621Z,0
2017-09-18T00:34:50.603Z,0
2017-09-18T00:35:59.276Z,0
2017-09-18T00:37:07.956Z,0
2017-09-18T00:38:16.924Z,0
2017-09-18T00:39:25.587Z,0
2017-09-18T00:40:34.554Z,0
2017-09-18T00:41:43.203Z,0
2017-09-18T00:42:52.176Z,0
2017-09-18T00:44:01.480Z,0
2017-09-18T00:45:10.287Z,0
2017-09-18T00:46:19.582Z,0
2017-09-18T00:47:28.251Z,0
2017-09-18T00:48:37.538Z,0
2017-09-18T00:49:46.508Z,0
2017-09-18T00:50:55.613Z,0
2017-09-18T00:52:04.894Z,0
2017-09-18T00:53:13.546Z,0
2017-09-18T00:54:22.513Z,0
2017-09-18T00:55:31.173Z,0
2017-09-18T00:56:40.134Z,0
2017-09-18T00:57:49.761Z,0
2017-09-18T00:58:58.714Z,0
2017-09-18T01:00:08.068Z,0
2017-09-18T01:01:16.750Z,0
2017-09-18T01:02:26.176Z,0
2017-09-18T01:03:34.853Z,0
2017-09-18T01:04:43.491Z,0
2017-09-18T01:05:52.460Z,0
2017-09-18T01:07:02.374Z,0
2017-09-18T01:08:11.672Z,0
2017-09-18T01:09:20.355Z,0
2017-09-18T01:10:29.026Z,0
2017-09-18T01:11:37.984Z,0
2017-09-18T01:12:47.285Z,0
2017-09-18T01:13:56.562Z,0
2017-09-18T01:15:05.217Z,0
2017-09-18T01:16:14.518Z,0
2017-09-18T01:17:24.115Z,0
2017-09-18T01:18:32.770Z,0
2017-09-18T01:19:41.880Z,0
2017-09-18T01:20:51.182Z,0
2017-09-18T01:21:59.837Z,0
2017-09-18T01:23:08.488Z,0
2017-09-18T01:24:18.098Z,0
2017-09-18T01:25:26.892Z,0
2017-09-18T01:26:35.930Z,0
2017-09-18T01:27:45.216Z,0
2017-09-18T01:28:54.190Z,0
2017-09-18T01:30:03.164Z,0
2017-09-18T01:31:11.969Z,0
2017-09-18T01:32:20.935Z,0
2017-09-18T01:33:30.227Z,0
2017-09-18T01:34:39.194Z,0
2017-09-18T01:35:48.177Z,0
2017-09-18T01:36:57.582Z,0
2017-09-18T01:38:07.198Z,0
2017-09-18T01:39:16.811Z,0
2017-09-18T01:40:26.117Z,0
2017-09-18T01:41:35.805Z,0
2017-09-18T01:42:44.786Z,0
2017-09-18T01:43:53.456Z,0
2017-09-18T01:45:03.063Z,0
2017-09-18T01:46:12.024Z,0
2017-09-18T01:47:20.689Z,0
2017-09-18T01:48:29.760Z,0
2017-09-18T01:49:38.438Z,0
2017-09-18T01:50:47.399Z,0
2017-09-18T01:51:56.701Z,0
2017-09-18T01:53:06.292Z,0
2017-09-18T01:54:15.250Z,0
2017-09-18T01:55:23.895Z,0
2017-09-18T01:56:33.548Z,0
2017-09-18T01:57:42.201Z,0
2017-09-18T01:58:50.869Z,0
2017-09-18T02:00:00.118Z,0
2017-09-18T02:01:09.426Z,0
2017-09-18T02:02:18.376Z,0
2017-09-18T02:03:27.404Z,0
2017-09-18T02:04:36.682Z,0
2017-09-18T02:05:45.947Z,0
2017-09-18T02:06:54.627Z,0
2017-09-18T02:08:03.914Z,0
2017-09-18T02:09:13.184Z,0
2017-09-18T02:10:22.460Z,0
2017-09-18T02:11:31.584Z,0
2017-09-18T02:12:40.864Z,0
2017-09-18T02:13:49.504Z,0
2017-09-18T02:14:58.165Z,0
2017-09-18T02:16:07.444Z,0
2017-09-18T02:17:16.385Z,0
2017-09-18T02:18:25.657Z,0
2017-09-18T02:19:35.261Z,0
2017-09-18T02:20:43.907Z,0
2017-09-18T02:21:52.886Z,0
2017-09-18T02:23:02.011Z,0
2017-09-18T02:24:11.311Z,0
2017-09-18T02:25:19.959Z,0
2017-09-18T02:26:28.916Z,0
2017-09-18T02:27:37.894Z,0
2017-09-18T02:28:47.195Z,0
2017-09-18T02:29:56.503Z,0
2017-09-18T02:31:05.856Z,0
2017-09-18T02:32:14.879Z,0
2017-09-18T02:33:24.492Z,0
2017-09-18T02:34:34.194Z,0
2017-09-18T02:35:43.810Z,0
2017-09-18T02:36:53.142Z,0
2017-09-18T02:38:02.444Z,0
2017-09-18T02:39:12.057Z,0
2017-09-18T02:40:21.636Z,0
2017-09-18T02:41:30.346Z,0
2017-09-18T02:42:39.316Z,0
2017-09-18T02:43:48.818Z,0
2017-09-18T02:44:58.760Z,0
2017-09-18T02:46:07.883Z,0
2017-09-18T02:47:16.855Z,0
2017-09-18T02:48:26.163Z,0
2017-09-18T02:49:34.832Z,0
2017-09-18T02:50:43.789Z,0
2017-09-18T02:51:53.233Z,0
2017-09-18T02:53:02.545Z,0
2017-09-18T02:54:12.150Z,0
2017-09-18T02:55:21.762Z,0
2017-09-18T02:56:31.061Z,0
2017-09-18T02:57:40.964Z,0
2017-09-18T02:58:50.247Z,0
2017-09-18T02:59:59.538Z,0
2017-09-18T03:01:08.566Z,0
2017-09-18T03:02:18.154Z,0
2017-09-18T03:03:26.815Z,0
2017-09-18T03:04:36.449Z,0
2017-09-18T03:05:45.466Z,0
2017-09-18T03:06:54.132Z,0
2017-09-18T03:08:02.809Z,0
2017-09-18T03:09:12.092Z,0
2017-09-18T03:10:21.379Z,0
2017-09-18T03:11:30.655Z,0
2017-09-18T03:12:39.622Z,0
2017-09-18T03:13:49.288Z,0
2017-09-18T03:14:58.938Z,0
2017-09-18T03:16:07.903Z,0
2017-09-18T03:17:16.556Z,0
2017-09-18T03:18:25.836Z,0
2017-09-18T03:19:34.828Z,0
2017-09-18T03:20:44.113Z,0
2017-09-18T03:21:53.393Z,0
2017-09-18T03:23:02.991Z,0
2017-09-18T03:24:12.259Z,0
2017-09-18T03:25:21.560Z,0
2017-09-18T03:26:30.864Z,0
2017-09-18T03:27:39.518Z,0
2017-09-18T03:28:48.818Z,0
2017-09-18T03:29:58.103Z,0
2017-09-18T03:31:07.400Z,0
2017-09-18T03:32:16.079Z,0
2017-09-18T03:33:25.964Z,0
2017-09-18T03:34:34.650Z,0
2017-09-18T03:35:43.950Z,0
2017-09-18T03:36:52.910Z,0
2017-09-18T03:38:02.503Z,0
2017-09-18T03:39:11.463Z,0
2017-09-18T03:40:20.107Z,0
2017-09-18T03:41:29.112Z,0
2017-09-18T03:42:38.082Z,0
2017-09-18T03:43:47.359Z,0
2017-09-18T03:44:56.006Z,0
2017-09-18T03:46:05.283Z,0
2017-09-18T03:47:14.261Z,0
2017-09-18T03:48:23.224Z,0
2017-09-18T03:49:32.855Z,0
2017-09-18T03:50:41.504Z,0
2017-09-18T03:51:50.470Z,0
2017-09-18T03:52:59.751Z,0
2017-09-18T03:54:08.394Z,0
2017-09-18T03:55:17.057Z,0
2017-09-18T03:56:26.350Z,0
2017-09-18T03:57:35.348Z,0
2017-09-18T03:58:44.313Z,0
2017-09-18T03:59:52.972Z,0
2017-09-18T04:01:01.979Z,0
2017-09-18T04:02:11.285Z,0
2017-09-18T04:03:20.903Z,0
2017-09-18T04:04:30.176Z,0
2017-09-18T04:05:39.447Z,0
2017-09-18T04:06:48.733Z,0
2017-09-18T04:07:57.700Z,0
2017-09-18T04:09:06.997Z,0
2017-09-18T04:10:15.977Z,0
2017-09-18T04:11:24.945Z,0
2017-09-18T04:12:33.619Z,0
2017-09-18T04:13:43.237Z,0
2017-09-18T04:14:52.522Z,0
2017-09-18T04:16:01.494Z,0
2017-09-18T04:17:10.467Z,0
2017-09-18T04:18:19.454Z,0
2017-09-18T04:19:28.105Z,0
2017-09-18T04:20:37.083Z,0
2017-09-18T04:21:46.162Z,0
2017-09-18T04:22:55.447Z,0
2017-09-18T04:24:04.424Z,0
2017-09-18T04:25:13.082Z,0
2017-09-18T04:26:22.378Z,0
2017-09-18T04:27:31.046Z,0
2017-09-18T04:28:40.655Z,0
2017-09-18T04:29:49.613Z,0
2017-09-18T04:30:58.605Z,0
2017-09-18T04:32:07.894Z,0
2017-09-18T04:33:17.183Z,0
2017-09-18T04:34:26.780Z,0
2017-09-18T04:35:36.085Z,0
2017-09-18T04:36:45.380Z,0
2017-09-18T04:37:54.050Z,0
2017-09-18T04:39:03.337Z,0
2017-09-18T04:40:12.928Z,0
2017-09-18T04:41:22.534Z,0
2017-09-18T04:42:31.515Z,0
2017-09-18T04:43:41.127Z,0
2017-09-18T04:44:49.780Z,0
2017-09-18T04:45:58.756Z,0
2017-09-18T04:47:07.736Z,0
2017-09-18T04:48:17.674Z,0
2017-09-18T04:49:27.272Z,0
2017-09-18T04:50:36.237Z,0
2017-09-18T04:51:45.215Z,4
2017-09-18T04:52:54.813Z,4
2017-09-18T04:54:04.138Z,0
2017-09-18T04:55:13.116Z,4
2017-09-18T04:56:22.092Z,4
2017-09-18T04:57:31.391Z,4
2017-09-18T04:58:40.362Z,4
2017-09-18T04:59:49.738Z,8
2017-09-18T05:00:59.369Z,8
2017-09-18T05:02:08.676Z,8
2017-09-18T05:03:17.361Z,8
2017-09-18T05:04:26.342Z,12
2017-09-18T05:05:35.644Z,8
2017-09-18T05:06:44.931Z,12
2017-09-18T05:07:53.991Z,16
2017-09-18T05:09:03.026Z,16
2017-09-18T05:10:12.203Z,16
2017-09-18T05:11:21.652Z,20
2017-09-18T05:12:30.576Z,24
2017-09-18T05:13:39.943Z,24
2017-09-18T05:14:49.100Z,24
2017-09-18T05:15:58.171Z,32
2017-09-18T05:17:07.239Z,32
2017-09-18T05:18:16.329Z,36
2017-09-18T05:19:25.294Z,36
2017-09-18T05:20:34.261Z,36
2017-09-18T05:21:43.957Z,36
2017-09-18T05:22:53.323Z,36
2017-09-18T05:24:03.103Z,40
2017-09-18T05:25:12.118Z,48
2017-09-18T05:26:21.572Z,48
2017-09-18T05:27:31.322Z,56
2017-09-18T05:28:40.996Z,64
2017-09-18T05:29:50.016Z,68
2017-09-18T05:30:59.038Z,72
2017-09-18T05:32:08.229Z,76
2017-09-18T05:33:16.956Z,80
2017-09-18T05:34:26.615Z,84
2017-09-18T05:35:36.226Z,84
2017-09-18T05:36:45.962Z,84
2017-09-18T05:37:55.594Z,88
2017-09-18T05:39:04.778Z,92
2017-09-18T05:40:14.167Z,100
2017-09-18T05:41:23.166Z,108
2017-09-18T05:42:32.278Z,116
2017-09-18T05:43:41.898Z,124
2017-09-18T05:44:51.360Z,136
2017-09-18T05:46:00.476Z,148
2017-09-18T05:47:10.126Z,160
2017-09-18T05:48:19.122Z,172
2017-09-18T05:49:28.564Z,192
2017-09-18T05:50:37.904Z,216
2017-09-18T05:51:47.220Z,236
2017-09-18T05:52:56.972Z,252
2017-09-18T05:54:06.141Z,268
2017-09-18T05:55:14.867Z,280
2017-09-18T05:56:23.871Z,308
2017-09-18T05:57:33.273Z,340
2017-09-18T05:58:42.720Z,348
2017-09-18T05:59:52.413Z,348
2017-09-18T06:01:02.044Z,332
2017-09-18T06:02:10.708Z,316
2017-09-18T06:03:20.034Z,296
2017-09-18T06:04:29.033Z,284
2017-09-18T06:05:38.486Z,288
2017-09-18T06:06:47.165Z,320
2017-09-18T06:07:56.463Z,360
2017-09-18T06:09:06.157Z,404
2017-09-18T06:10:15.576Z,436
2017-09-18T06:11:24.633Z,428
2017-09-18T06:12:34.158Z,408
2017-09-18T06:13:43.541Z,380
2017-09-18T06:14:52.822Z,356
2017-09-18T06:16:02.122Z,344
2017-09-18T06:17:11.165Z,356
2017-09-18T06:18:20.148Z,380
2017-09-18T06:19:29.612Z,408
2017-09-18T06:20:38.316Z,444
2017-09-18T06:21:47.830Z,484
2017-09-18T06:22:56.808Z,516
2017-09-18T06:24:05.558Z,540
2017-09-18T06:25:14.840Z,544
2017-09-18T06:26:24.274Z,528
2017-09-18T06:27:32.917Z,516
2017-09-18T06:28:41.911Z,500
2017-09-18T06:29:50.561Z,488
2017-09-18T06:30:59.996Z,484
2017-09-18T06:32:08.654Z,500
2017-09-18T06:33:17.417Z,496
2017-09-18T06:34:26.255Z,500
2017-09-18T06:35:35.214Z,524
2017-09-18T06:36:44.552Z,548
2017-09-18T06:37:53.896Z,560
2017-09-18T06:39:02.932Z,624
2017-09-18T06:40:11.768Z,680
2017-09-18T06:41:20.420Z,684
2017-09-18T06:42:29.424Z,632
2017-09-18T06:43:38.161Z,568
2017-09-18T06:44:47.793Z,580
2017-09-18T06:45:57.126Z,620
2017-09-18T06:47:06.479Z,652
2017-09-18T06:48:15.823Z,684
2017-09-18T06:49:25.106Z,696
2017-09-18T06:50:34.261Z,724
2017-09-18T06:51:42.928Z,788
2017-09-18T06:52:51.917Z,956
2017-09-18T06:54:00.884Z,1152
2017-09-18T06:55:09.886Z,1324
2017-09-18T06:56:18.631Z,1452
2017-09-18T06:57:28.427Z,1556
2017-09-18T06:58:37.397Z,1580
2017-09-18T06:59:46.454Z,1604
2017-09-18T07:00:56.048Z,1696
2017-09-18T07:02:04.944Z,1812
2017-09-18T07:03:13.915Z,1768
2017-09-18T07:04:23.408Z,1732
2017-09-18T07:05:32.105Z,1720
2017-09-18T07:06:41.171Z,1684
2017-09-18T07:07:50.528Z,1700
2017-09-18T07:08:59.865Z,1828
2017-09-18T07:10:08.965Z,1964
2017-09-18T07:11:18.340Z,2052
2017-09-18T07:12:27.317Z,2056
2017-09-18T07:13:37.281Z,2000
2017-09-18T07:14:45.934Z,1896
2017-09-18T07:15:55.279Z,1916
2017-09-18T07:17:04.266Z,2012
2017-09-18T07:18:13.530Z,2128
2017-09-18T07:19:22.494Z,2156
2017-09-18T07:20:31.921Z,1948
2017-09-18T07:21:41.326Z,1704
2017-09-18T07:22:50.686Z,1524
2017-09-18T07:23:59.412Z,1416
2017-09-18T07:25:08.450Z,1392
2017-09-18T07:26:18.117Z,1444
2017-09-18T07:27:27.228Z,1516
2017-09-18T07:28:35.987Z,1636
2017-09-18T07:29:44.986Z,1936
2017-09-18T07:30:55.202Z,2296
2017-09-18T07:32:04.536Z,2072
2017-09-18T07:33:14.143Z,1828
2017-09-18T07:34:22.811Z,1980
2017-09-18T07:35:32.692Z,2020
2017-09-18T07:36:42.417Z,1948
2017-09-18T07:37:51.185Z,1804
2017-09-18T07:39:00.844Z,1908
2017-09-18T07:40:09.882Z,2152
2017-09-18T07:41:19.173Z,2360
2017-09-18T07:42:28.043Z,2532
2017-09-18T07:43:37.742Z,3068
2017-09-18T07:44:47.080Z,3656
2017-09-18T07:45:56.617Z,3356
2017-09-18T07:47:05.591Z,2548
2017-09-18T07:48:14.269Z,2268
2017-09-18T07:49:23.561Z,2072
2017-09-18T07:50:32.593Z,1588
2017-09-18T07:51:41.574Z,1384
2017-09-18T07:52:50.260Z,1256
2017-09-18T07:54:00.220Z,1128
2017-09-18T07:55:09.579Z,1036
2017-09-18T07:56:18.904Z,1132
2017-09-18T07:57:28.016Z,1196
2017-09-18T07:58:37.344Z,1244
2017-09-18T07:59:46.680Z,1320
2017-09-18T08:00:55.668Z,1260
2017-09-18T08:02:04.964Z,1432
2017-09-18T08:03:14.897Z,1368
2017-09-18T08:04:24.454Z,1232
2017-09-18T08:05:33.474Z,1176
2017-09-18T08:06:43.268Z,1180
2017-09-18T08:07:52.475Z,1216
2017-09-18T08:09:01.170Z,1388
2017-09-18T08:10:10.846Z,1408
2017-09-18T08:11:20.209Z,1420
2017-09-18T08:12:28.985Z,1344
2017-09-18T08:13:37.729Z,1192
2017-09-18T08:14:46.730Z,1200
2017-09-18T08:15:55.794Z,1280
2017-09-18T08:17:04.830Z,1484
2017-09-18T08:18:13.620Z,1568
2017-09-18T08:19:23.252Z,1640
2017-09-18T08:20:32.324Z,1572
2017-09-18T08:21:41.670Z,1512
2017-09-18T08:22:50.641Z,1632
2017-09-18T08:23:59.603Z,1516
2017-09-18T08:25:08.574Z,1496
2017-09-18T08:26:18.169Z,1700
2017-09-18T08:27:27.063Z,2244
2017-09-18T08:28:36.098Z,2836
2017-09-18T08:29:45.646Z,3124
2017-09-18T08:30:54.327Z,3244
2017-09-18T08:32:03.302Z,3452
2017-09-18T08:33:12.984Z,3352
2017-09-18T08:34:22.386Z,3216
2017-09-18T08:35:31.091Z,3420
2017-09-18T08:36:40.122Z,3216
2017-09-18T08:37:49.124Z,3368
2017-09-18T08:38:58.101Z,3984
2017-09-18T08:40:07.654Z,3944
2017-09-18T08:41:16.758Z,3616
2017-09-18T08:42:25.735Z,3480
2017-09-18T08:43:35.259Z,3668
2017-09-18T08:44:44.276Z,3776
2017-09-18T08:45:53.646Z,3692
2017-09-18T08:47:02.951Z,3188
2017-09-18T08:48:12.570Z,3076
2017-09-18T08:49:22.251Z,2792
2017-09-18T08:50:31.225Z,2264
2017-09-18T08:51:40.633Z,2264
2017-09-18T08:52:50.027Z,2028
2017-09-18T08:53:59.371Z,1340
2017-09-18T08:55:08.443Z,1132
2017-09-18T08:56:17.195Z,1504
2017-09-18T08:57:26.968Z,1444
2017-09-18T08:58:36.157Z,1352
2017-09-18T08:59:45.642Z,1288
2017-09-18T09:00:54.314Z,1408
2017-09-18T09:02:03.348Z,1492
2017-09-18T09:03:13.098Z,1672
2017-09-18T09:04:21.875Z,1684
2017-09-18T09:05:30.609Z,1280
2017-09-18T09:06:39.967Z,1272
2017-09-18T09:07:48.643Z,1288
2017-09-18T09:08:57.799Z,1256
2017-09-18T09:10:07.556Z,1108
2017-09-18T09:11:16.336Z,1092
2017-09-18T09:12:25.462Z,952
2017-09-18T09:13:35.088Z,824
2017-09-18T09:14:43.888Z,936
2017-09-18T09:15:52.876Z,820
2017-09-18T09:17:01.972Z,616
2017-09-18T09:18:11.050Z,572
2017-09-18T09:19:20.017Z,704
2017-09-18T09:20:29.389Z,540
2017-09-18T09:21:38.532Z,636
2017-09-18T09:22:47.515Z,600
2017-09-18T09:23:56.938Z,644
2017-09-18T09:25:06.001Z,1232
2017-09-18T09:26:14.938Z,1572
2017-09-18T09:27:24.048Z,1384
2017-09-18T09:28:33.040Z,1168
2017-09-18T09:29:42.352Z,1352
2017-09-18T09:30:51.074Z,1296
2017-09-18T09:32:00.444Z,1316
2017-09-18T09:33:10.225Z,1584
2017-09-18T09:34:19.230Z,1652
2017-09-18T09:35:28.615Z,1428
2017-09-18T09:36:37.293Z,1132
2017-09-18T09:37:46.023Z,1324
2017-09-18T09:38:55.348Z,1112
2017-09-18T09:40:04.481Z,1088
2017-09-18T09:41:13.356Z,1208
2017-09-18T09:42:23.003Z,1328
2017-09-18T09:43:32.165Z,1436
2017-09-18T09:44:40.909Z,1652
2017-09-18T09:45:50.237Z,1784
2017-09-18T09:47:00.205Z,1676
2017-09-18T09:48:09.206Z,1536
2017-09-18T09:49:18.842Z,1220
2017-09-18T09:50:27.533Z,1044
2017-09-18T09:51:36.236Z,716
2017-09-18T09:52:44.994Z,760
2017-09-18T09:53:53.817Z,424
2017-09-18T09:55:02.505Z,292
2017-09-18T09:56:11.546Z,240
2017-09-18T09:57:20.699Z,228
2017-09-18T09:58:29.968Z,276
2017-09-18T09:59:38.649Z,344
2017-09-18T10:00:48.136Z,492
2017-09-18T10:01:57.490Z,660
2017-09-18T10:03:06.783Z,708
2017-09-18T10:04:15.490Z,608
2017-09-18T10:05:24.823Z,620
2017-09-18T10:06:34.770Z,1004
2017-09-18T10:07:43.855Z,1088
2017-09-18T10:08:54.225Z,1016
2017-09-18T10:10:03.528Z,960
2017-09-18T10:11:13.038Z,968
2017-09-18T10:12:23.636Z,644
2017-09-18T10:13:33.882Z,624
2017-09-18T10:14:44.842Z,732
2017-09-18T10:15:54.060Z,504
2017-09-18T10:17:03.089Z,484
2017-09-18T10:18:12.363Z,380
2017-09-18T10:19:21.917Z,364
2017-09-18T10:20:31.476Z,400
2017-09-18T10:21:41.845Z,456
2017-09-18T10:22:50.894Z,676
2017-09-18T10:24:00.312Z,804
2017-09-18T10:25:09.526Z,740
2017-09-18T10:26:19.228Z,640
2017-09-18T10:27:28.259Z,676
2017-09-18T10:28:37.731Z,752
2017-09-18T10:29:47.822Z,740
2017-09-18T10:30:57.500Z,776
2017-09-18T10:32:06.404Z,676
2017-09-18T10:33:16.417Z,700
2017-09-18T10:34:26.064Z,744
2017-09-18T10:35:35.665Z,620
2017-09-18T10:36:45.133Z,452
2017-09-18T10:37:55.338Z,408
2017-09-18T10:39:05.662Z,492
2017-09-18T10:40:15.489Z,656
2017-09-18T10:41:25.220Z,816
2017-09-18T10:42:34.436Z,932
2017-09-18T10:43:43.718Z,728
2017-09-18T10:44:53.111Z,692
2017-09-18T10:46:03.310Z,800
2017-09-18T10:47:12.976Z,824
2017-09-18T10:48:23.141Z,720
2017-09-18T10:49:32.456Z,648
2017-09-18T10:50:41.981Z,716
2017-09-18T10:51:53.021Z,904
2017-09-18T10:53:03.251Z,1048
2017-09-18T10:54:12.965Z,1004
2017-09-18T10:55:21.976Z,812
2017-09-18T10:56:31.786Z,628
2017-09-18T10:57:41.274Z,564
2017-09-18T10:58:51.282Z,496
2017-09-18T11:00:01.227Z,484
2017-09-18T11:01:10.724Z,820
2017-09-18T11:02:20.932Z,1168
2017-09-18T11:03:30.538Z,1356
2017-09-18T11:04:39.827Z,1320
2017-09-18T11:05:49.803Z,1220
2017-09-18T11:06:59.236Z,1304
2017-09-18T11:08:08.522Z,1476
2017-09-18T11:09:18.395Z,1660
2017-09-18T11:10:28.443Z,1744
2017-09-18T11:11:38.142Z,1688
2017-09-18T11:12:47.516Z,1584
2017-09-18T11:13:56.845Z,1544
2017-09-18T11:15:06.413Z,1580
2017-09-18T11:16:15.907Z,1624
2017-09-18T11:17:27.887Z,1552
2017-09-18T11:18:37.287Z,1500
2017-09-18T11:19:46.847Z,1500
2017-09-18T11:20:56.443Z,1620
2017-09-18T11:22:05.345Z,1752
2017-09-18T11:23:15.310Z,1736
2017-09-18T11:24:24.302Z,1552
2017-09-18T11:25:34.025Z,1440
2017-09-18T11:26:43.456Z,1500
2017-09-18T11:27:52.531Z,1532
2017-09-18T11:29:02.264Z,1592
2017-09-18T11:30:11.565Z,1660
2017-09-18T11:31:22.080Z,1620
2017-09-18T11:32:33.764Z,1412
2017-09-18T11:33:44.421Z,1360
2017-09-18T11:34:55.248Z,1424
2017-09-18T11:36:06.399Z,1476
2017-09-18T11:37:17.172Z,1476
2017-09-18T11:38:27.514Z,1612
2017-09-18T11:39:38.279Z,1840
2017-09-18T11:40:48.697Z,1648
2017-09-18T11:41:59.605Z,1296
2017-09-18T11:43:11.137Z,1036
2017-09-18T11:44:21.845Z,832
2017-09-18T11:45:32.355Z,772
2017-09-18T11:46:42.607Z,752
2017-09-18T11:47:51.597Z,752
2017-09-18T11:49:01.149Z,764
2017-09-18T11:50:11.194Z,780
2017-09-18T11:51:20.681Z,804
2017-09-18T11:52:29.650Z,784
2017-09-18T11:53:38.947Z,724
2017-09-18T11:54:47.918Z,736
2017-09-18T11:55:56.876Z,756
2017-09-18T11:57:06.152Z,772
2017-09-18T11:58:15.753Z,824
2017-09-18T11:59:24.736Z,880
2017-09-18T12:00:34.015Z,940
2017-09-18T12:01:42.681Z,1084
2017-09-18T12:02:51.983Z,1320
2017-09-18T12:04:01.329Z,1620
2017-09-18T12:05:09.981Z,1880
2017-09-18T12:06:19.318Z,2124
2017-09-18T12:07:28.600Z,2332
2017-09-18T12:08:37.874Z,2384
2017-09-18T12:09:46.964Z,2296
2017-09-18T12:10:55.933Z,2280
2017-09-18T12:12:04.622Z,2412
2017-09-18T12:13:13.270Z,2724
2017-09-18T12:14:22.248Z,2984
2017-09-18T12:15:31.369Z,2980
2017-09-18T12:16:40.333Z,2692
2017-09-18T12:17:49.614Z,2216
2017-09-18T12:18:58.266Z,1880
2017-09-18T12:20:07.552Z,1768
2017-09-18T12:21:16.197Z,1720
2017-09-18T12:22:24.840Z,1416
2017-09-18T12:23:33.537Z,1188
2017-09-18T12:24:42.830Z,1196
2017-09-18T12:25:52.741Z,1212
2017-09-18T12:27:01.384Z,1176
2017-09-18T12:28:10.363Z,1052
2017-09-18T12:29:20.284Z,1220
2017-09-18T12:30:30.206Z,1464
2017-09-18T12:31:39.496Z,1760
2017-09-18T12:32:48.484Z,1948
2017-09-18T12:33:57.828Z,2144
2017-09-18T12:35:07.131Z,2208
2017-09-18T12:36:16.098Z,2196
2017-09-18T12:37:25.379Z,1528
2017-09-18T12:38:35.331Z,1104
2017-09-18T12:39:44.313Z,976
2017-09-18T12:40:53.272Z,904
2017-09-18T12:42:02.860Z,856
2017-09-18T12:43:11.520Z,824
2017-09-18T12:44:20.793Z,820
2017-09-18T12:45:29.457Z,808
2017-09-18T12:46:38.572Z,776
2017-09-18T12:47:47.545Z,736
2017-09-18T12:48:56.841Z,744
2017-09-18T12:50:05.867Z,656
2017-09-18T12:51:14.511Z,656
2017-09-18T12:52:23.800Z,660
2017-09-18T12:53:33.429Z,672
2017-09-18T12:54:42.719Z,736
2017-09-18T12:55:51.690Z,844
2017-09-18T12:57:00.672Z,888
2017-09-18T12:58:09.652Z,1072
2017-09-18T12:59:18.319Z,1240
2017-09-18T13:00:26.971Z,1404
2017-09-18T13:01:36.603Z,1464
2017-09-18T13:02:45.249Z,1448
2017-09-18T13:03:53.924Z,1420
2017-09-18T13:05:02.893Z,1500
2017-09-18T13:06:11.897Z,1464
2017-09-18T13:07:20.873Z,1396
2017-09-18T13:08:30.154Z,1328
2017-09-18T13:09:39.144Z,1412
2017-09-18T13:10:48.418Z,1416
2017-09-18T13:11:58.034Z,1516
2017-09-18T13:13:07.335Z,1592
2017-09-18T13:14:17.272Z,1752
2017-09-18T13:15:25.942Z,1908
2017-09-18T13:16:35.228Z,1900
2017-09-18T13:17:44.227Z,1936
2017-09-18T13:18:52.867Z,1792
2017-09-18T13:20:01.841Z,1564
2017-09-18T13:21:11.118Z,1344
2017-09-18T13:22:20.724Z,1200
2017-09-18T13:23:29.710Z,1084
2017-09-18T13:24:38.684Z,1052
2017-09-18T13:25:47.981Z,1036
2017-09-18T13:26:57.278Z,976
2017-09-18T13:28:05.959Z,1052
2017-09-18T13:29:15.243Z,1156
2017-09-18T13:30:23.895Z,1220
2017-09-18T13:31:33.180Z,1448
2017-09-18T13:32:41.853Z,1536
2017-09-18T13:33:50.850Z,1564
2017-09-18T13:34:59.517Z,1644
2017-09-18T13:36:09.144Z,1640
2017-09-18T13:37:18.838Z,1484
2017-09-18T13:38:27.804Z,1296
2017-09-18T13:39:37.091Z,1100
2017-09-18T13:40:46.375Z,1000
2017-09-18T13:41:55.347Z,900
2017-09-18T13:43:04.623Z,884
2017-09-18T13:44:14.314Z,892
2017-09-18T13:45:23.596Z,964
2017-09-18T13:46:32.568Z,1004
2017-09-18T13:47:41.209Z,1104
2017-09-18T13:48:50.506Z,1332
2017-09-18T13:49:59.484Z,1428
2017-09-18T13:51:08.470Z,1516
2017-09-18T13:52:17.194Z,1676
2017-09-18T13:53:26.165Z,1936
2017-09-18T13:54:35.132Z,2184
2017-09-18T13:55:44.133Z,1700
2017-09-18T13:56:53.420Z,1336
2017-09-18T13:58:03.020Z,1504
2017-09-18T13:59:11.660Z,1384
2017-09-18T14:00:20.630Z,1032
2017-09-18T14:01:29.302Z,832
2017-09-18T14:02:38.257Z,836
2017-09-18T14:03:47.224Z,832
2017-09-18T14:04:56.254Z,772
2017-09-18T14:06:05.553Z,704
2017-09-18T14:07:14.838Z,764
2017-09-18T14:08:24.150Z,840
2017-09-18T14:09:32.791Z,844
2017-09-18T14:10:41.744Z,760
2017-09-18T14:11:50.713Z,592
2017-09-18T14:12:59.376Z,488
2017-09-18T14:14:08.335Z,484
2017-09-18T14:15:17.611Z,436
2017-09-18T14:16:26.909Z,368
2017-09-18T14:17:35.562Z,312
2017-09-18T14:18:44.239Z,328
2017-09-18T14:19:53.893Z,332
2017-09-18T14:21:03.487Z,280
2017-09-18T14:22:12.446Z,256
2017-09-18T14:23:21.726Z,264
2017-09-18T14:24:30.690Z,284
2017-09-18T14:25:39.645Z,288
2017-09-18T14:26:48.914Z,292
2017-09-18T14:27:57.883Z,284
2017-09-18T14:29:07.158Z,348
2017-09-18T14:30:16.121Z,432
2017-09-18T14:31:24.775Z,736
2017-09-18T14:32:33.726Z,716
2017-09-18T14:33:42.699Z,560
2017-09-18T14:34:51.369Z,580
2017-09-18T14:36:00.643Z,712
2017-09-18T14:37:09.923Z,812
2017-09-18T14:38:18.884Z,964
2017-09-18T14:39:28.157Z,1064
2017-09-18T14:40:36.818Z,936
2017-09-18T14:41:45.797Z,824
2017-09-18T14:42:54.752Z,652
2017-09-18T14:44:03.770Z,620
2017-09-18T14:45:12.490Z,664
2017-09-18T14:46:21.253Z,692
2017-09-18T14:47:30.172Z,680
2017-09-18T14:48:39.306Z,684
2017-09-18T14:49:48.291Z,632
2017-09-18T14:50:57.685Z,632
2017-09-18T14:52:06.370Z,736
2017-09-18T14:53:15.760Z,744
2017-09-18T14:54:25.515Z,708
2017-09-18T14:55:35.348Z,684
2017-09-18T14:56:44.774Z,692
2017-09-18T14:57:54.066Z,744
2017-09-18T14:59:03.119Z,720
2017-09-18T15:00:12.807Z,744
2017-09-18T15:01:22.123Z,776
2017-09-18T15:02:31.410Z,792
2017-09-18T15:03:40.074Z,776
2017-09-18T15:04:48.756Z,744
2017-09-18T15:05:58.170Z,740
2017-09-18T15:07:07.283Z,676
2017-09-18T15:08:15.925Z,628
2017-09-18T15:09:24.991Z,560
2017-09-18T15:10:33.740Z,528
2017-09-18T15:11:42.852Z,536
2017-09-18T15:12:51.881Z,448
2017-09-18T15:14:01.225Z,336
2017-09-18T15:15:10.303Z,408
2017-09-18T15:16:19.656Z,532
2017-09-18T15:17:29.113Z,576
2017-09-18T15:18:38.458Z,500
2017-09-18T15:19:47.277Z,424
2017-09-18T15:20:56.423Z,420
2017-09-18T15:22:05.116Z,508
2017-09-18T15:23:15.010Z,616
2017-09-18T15:24:24.385Z,596
2017-09-18T15:25:33.076Z,604
2017-09-18T15:26:41.781Z,596
2017-09-18T15:27:50.417Z,612
2017-09-18T15:29:00.064Z,632
2017-09-18T15:30:09.442Z,556
2017-09-18T15:31:18.498Z,364
2017-09-18T15:32:28.503Z,260
2017-09-18T15:33:37.865Z,260
2017-09-18T15:34:47.160Z,272
2017-09-18T15:35:55.843Z,240
2017-09-18T15:37:05.170Z,220
2017-09-18T15:38:14.570Z,212
2017-09-18T15:39:24.009Z,188
2017-09-18T15:40:33.685Z,140
2017-09-18T15:41:43.643Z,128
2017-09-18T15:42:52.760Z,120
2017-09-18T15:44:02.259Z,80
2017-09-18T15:45:12.131Z,64
2017-09-18T15:46:20.894Z,60
2017-09-18T15:47:30.245Z,68
2017-09-18T15:48:39.030Z,84
2017-09-18T15:49:47.786Z,112
2017-09-18T15:50:56.851Z,132
2017-09-18T15:52:05.814Z,144
2017-09-18T15:53:15.212Z,144
2017-09-18T15:54:24.595Z,156
2017-09-18T15:55:33.600Z,168
2017-09-18T15:56:43.036Z,188
2017-09-18T15:57:52.470Z,204
2017-09-18T15:59:01.878Z,232
2017-09-18T16:00:11.224Z,244
2017-09-18T16:01:20.312Z,196
2017-09-18T16:02:29.421Z,140
2017-09-18T16:03:38.331Z,124
2017-09-18T16:04:47.308Z,112